createdAt,value
2018-09-11T00:00:14.009Z,75.20
2018-09-11T00:02:41.422Z,74.20
2018-09-11T00:05:08.805Z,75.00
2018-09-11T00:07:36.177Z,75.20
2018-09-11T00:10:03.576Z,74.30
2018-09-11T00:12:31.072Z,76.20
2018-09-11T00:14:58.464Z,75.40
2018-09-11T00:17:25.870Z,75.00
2018-09-11T00:19:53.268Z,76.00
2018-09-11T00:22:20.664Z,75.40
2018-09-11T00:24:48.153Z,75.80
2018-09-11T00:27:15.775Z,75.00
2018-09-11T00:29:43.152Z,75.00
2018-09-11T00:32:10.535Z,74.80
2018-09-11T00:34:37.933Z,75.60
2018-09-11T00:37:05.325Z,75.30
2018-09-11T00:39:32.720Z,76.80
2018-09-11T00:42:00.144Z,75.80
2018-09-11T00:44:27.488Z,75.30
2018-09-11T00:46:54.853Z,76.10
2018-09-11T00:51:51.933Z,75.40
2018-09-11T00:54:19.289Z,75.70
2018-09-11T00:56:46.745Z,77.00
2018-09-11T00:59:14.130Z,75.90
2018-09-11T01:01:41.594Z,75.50
2018-09-11T01:04:09.064Z,75.70
2018-09-11T01:06:36.571Z,76.10
2018-09-11T01:09:06.575Z,75.90
2018-09-11T01:11:33.986Z,75.40
2018-09-11T01:14:01.412Z,75.40
2018-09-11T01:16:28.845Z,75.50
2018-09-11T01:18:56.279Z,75.30
2018-09-11T01:21:23.676Z,75.90
2018-09-11T01:23:51.290Z,76.10
2018-09-11T01:26:18.721Z,75.80
2018-09-11T01:28:46.127Z,76.70
2018-09-11T01:31:13.526Z,76.70
2018-09-11T01:33:40.962Z,75.70
2018-09-11T01:36:08.424Z,75.70
2018-09-11T01:38:35.935Z,75.50
2018-09-11T01:41:03.371Z,75.90
2018-09-11T01:43:30.779Z,75.10
2018-09-11T01:45:58.173Z,75.20
2018-09-11T01:48:25.588Z,75.30
2018-09-11T01:50:53.019Z,75.40
2018-09-11T01:53:20.420Z,75.00
2018-09-11T01:55:48.031Z,75.20
2018-09-11T01:58:15.428Z,75.40
2018-09-11T02:00:42.828Z,75.00
2018-09-11T02:03:10.244Z,74.70
2018-09-11T02:05:38.490Z,75.00
2018-09-11T02:08:05.880Z,74.70
2018-09-11T02:10:33.659Z,74.70
2018-09-11T02:13:01.092Z,75.40
2018-09-11T02:15:28.536Z,75.60
2018-09-11T02:17:55.983Z,75.70
2018-09-11T02:20:23.398Z,75.40
2018-09-11T02:22:50.758Z,75.50
2018-09-11T02:25:18.157Z,76.30
2018-09-11T02:27:45.524Z,75.80
2018-09-11T02:30:12.892Z,76.00
2018-09-11T02:32:40.305Z,75.80
2018-09-11T02:35:07.719Z,76.20
2018-09-11T02:37:35.118Z,76.20
2018-09-11T02:40:02.537Z,75.80
2018-09-11T02:42:29.921Z,76.20
2018-09-11T02:44:57.396Z,76.20
2018-09-11T02:47:24.894Z,77.70
2018-09-11T02:49:52.336Z,77.20
2018-09-11T02:52:19.776Z,77.00
2018-09-11T02:54:47.217Z,76.80
2018-09-11T02:57:14.734Z,76.50
2018-09-11T02:59:42.121Z,77.80
2018-09-11T03:02:09.537Z,77.80
2018-09-11T03:04:37.009Z,77.30
2018-09-11T03:07:04.453Z,76.80
2018-09-11T03:09:31.857Z,76.80
2018-09-11T03:11:59.245Z,77.70
2018-09-11T03:14:26.646Z,78.50
2018-09-11T03:16:54.114Z,77.20
2018-09-11T03:19:21.558Z,77.90
2018-09-11T03:21:48.960Z,78.00
2018-09-11T03:24:16.347Z,77.60
2018-09-11T03:26:43.912Z,77.30
2018-09-11T03:29:11.321Z,77.70
2018-09-11T03:31:38.948Z,77.30
2018-09-11T03:34:06.622Z,78.10
2018-09-11T03:36:34.090Z,78.70
2018-09-11T03:39:01.511Z,78.10
2018-09-11T03:41:28.920Z,78.00
2018-09-11T03:43:56.342Z,77.90
2018-09-11T03:46:23.815Z,78.40
2018-09-11T03:48:51.305Z,78.00
2018-09-11T03:51:18.740Z,77.90
2018-09-11T03:53:46.148Z,78.40
2018-09-11T03:56:13.556Z,78.40
2018-09-11T03:58:40.980Z,77.60
2018-09-11T04:01:08.401Z,79.10
2018-09-11T04:03:35.869Z,78.30
2018-09-11T04:06:03.324Z,78.30
2018-09-11T04:08:30.851Z,78.30
2018-09-11T04:10:58.280Z,78.50
2018-09-11T04:13:25.740Z,79.10
2018-09-11T04:15:53.191Z,79.30
2018-09-11T04:18:20.615Z,78.90
2018-09-11T04:20:48.024Z,78.30
2018-09-11T04:23:15.478Z,79.50
2018-09-11T04:25:42.996Z,78.70
2018-09-11T04:28:10.393Z,78.50
2018-09-11T04:30:37.837Z,78.40
2018-09-11T04:33:05.260Z,79.30
2018-09-11T04:35:32.662Z,78.50
2018-09-11T04:38:00.072Z,78.40
2018-09-11T04:40:27.528Z,79.50
2018-09-11T04:42:54.939Z,78.70
2018-09-11T04:45:22.326Z,78.50
2018-09-11T04:47:49.749Z,77.80
2018-09-11T04:50:17.161Z,79.00
2018-09-11T04:52:44.615Z,78.00
2018-09-11T04:55:12.089Z,79.30
2018-09-11T04:57:39.521Z,78.80
2018-09-11T05:00:06.920Z,78.80
2018-09-11T05:02:34.336Z,79.50
2018-09-11T05:05:01.752Z,78.10
2018-09-11T05:07:29.260Z,78.80
2018-09-11T05:09:56.701Z,79.20
2018-09-11T05:12:24.780Z,79.70
2018-09-11T05:14:52.228Z,79.70
2018-09-11T05:17:19.633Z,79.40
2018-09-11T05:19:47.099Z,79.10
2018-09-11T05:22:14.503Z,78.80
2018-09-11T05:24:41.985Z,79.40
2018-09-11T05:27:09.420Z,79.70
2018-09-11T05:29:36.824Z,78.90
2018-09-11T05:32:04.280Z,79.50
2018-09-11T05:34:31.691Z,79.10
2018-09-11T05:36:59.250Z,79.10
2018-09-11T05:39:26.627Z,78.80
2018-09-11T05:41:54.025Z,79.00
2018-09-11T05:44:21.425Z,78.70
2018-09-11T05:46:49.278Z,79.00
2018-09-11T05:49:16.698Z,79.80
2018-09-11T05:51:44.211Z,79.30
2018-09-11T05:54:11.699Z,79.50
2018-09-11T05:56:39.111Z,80.20
2018-09-11T05:59:06.497Z,79.40
2018-09-11T06:01:34.039Z,79.30
2018-09-11T06:04:01.429Z,80.10
2018-09-11T06:06:28.842Z,80.20
2018-09-11T06:08:56.338Z,79.00
2018-09-11T06:11:23.928Z,79.30
2018-09-11T06:13:51.404Z,80.30
2018-09-11T06:16:18.913Z,80.40
2018-09-11T06:18:46.355Z,80.70
2018-09-11T06:21:13.796Z,80.10
2018-09-11T06:23:41.269Z,80.10
2018-09-11T06:26:08.824Z,80.70
2018-09-11T06:28:36.253Z,81.00
2018-09-11T06:31:07.152Z,81.10
2018-09-11T06:33:34.782Z,80.20
2018-09-11T06:36:02.484Z,80.70
2018-09-11T06:38:30.204Z,80.80
2018-09-11T06:40:58.191Z,79.80
2018-09-11T06:43:25.665Z,81.00
2018-09-11T06:45:53.174Z,81.10
2018-09-11T06:48:20.813Z,80.30
2018-09-11T06:50:48.308Z,80.70
2018-09-11T06:53:15.708Z,80.20
2018-09-11T06:55:43.765Z,80.50
2018-09-11T06:58:11.220Z,80.40
2018-09-11T07:00:38.797Z,80.60
2018-09-11T07:03:06.378Z,80.80
2018-09-11T07:05:33.776Z,81.50
2018-09-11T07:08:01.217Z,81.40
2018-09-11T07:10:28.689Z,80.30
2018-09-11T07:12:56.088Z,81.20
2018-09-11T07:15:23.484Z,80.60
2018-09-11T07:17:50.901Z,80.80
2018-09-11T07:20:19.057Z,80.40
2018-09-11T07:22:46.217Z,80.40
2018-09-11T07:25:13.611Z,80.40
2018-09-11T07:27:41.642Z,80.60
2018-09-11T07:30:09.080Z,80.50
2018-09-11T07:32:36.544Z,80.90
2018-09-11T07:35:04.332Z,80.50
2018-09-11T07:37:31.737Z,80.30
2018-09-11T07:39:59.151Z,81.50
2018-09-11T07:42:26.589Z,80.20
2018-09-11T07:44:54.399Z,80.30
2018-09-11T07:47:21.831Z,80.70
2018-09-11T07:49:49.429Z,80.00
2018-09-11T07:52:16.906Z,80.30
2018-09-11T07:54:44.435Z,79.70
2018-09-11T07:57:12.184Z,80.40
2018-09-11T07:59:39.698Z,79.70
2018-09-11T08:02:07.117Z,79.60
2018-09-11T08:04:35.130Z,79.80
2018-09-11T08:07:02.568Z,79.50
2018-09-11T08:09:31.333Z,79.50
2018-09-11T08:11:58.849Z,79.70
2018-09-11T08:14:26.327Z,79.10
2018-09-11T08:16:53.764Z,78.70
2018-09-11T08:19:21.645Z,79.40
2018-09-11T08:21:49.178Z,79.40
2018-09-11T08:24:16.645Z,79.00
2018-09-11T08:26:44.084Z,78.90
2018-09-11T08:29:11.552Z,78.90
2018-09-11T08:31:39.862Z,78.40
2018-09-11T08:34:07.328Z,79.00
2018-09-11T08:36:34.863Z,78.60
2018-09-11T08:39:02.467Z,78.30
2018-09-11T08:41:29.910Z,78.10
2018-09-11T08:43:57.352Z,78.20
2018-09-11T08:46:24.876Z,77.90
2018-09-11T08:48:52.345Z,77.80
2018-09-11T08:51:19.796Z,77.80
2018-09-11T08:53:47.265Z,77.80
2018-09-11T08:56:14.780Z,77.60
2018-09-11T08:58:42.315Z,77.80
2018-09-11T09:01:09.761Z,77.50
2018-09-11T09:03:37.575Z,77.70
2018-09-11T09:06:04.964Z,77.80
2018-09-11T09:08:32.356Z,76.90
2018-09-11T09:11:00.561Z,77.40
2018-09-11T09:13:27.993Z,77.20
2018-09-11T09:15:55.505Z,77.00
2018-09-11T09:18:23.153Z,77.10
2018-09-11T09:20:50.620Z,77.10
2018-09-11T09:23:18.174Z,76.90
2018-09-11T09:25:45.767Z,76.40
2018-09-11T09:28:13.376Z,75.50
2018-09-11T09:30:40.824Z,75.60
2018-09-11T09:33:08.457Z,75.00
2018-09-11T09:35:35.949Z,75.20
2018-09-11T09:38:03.328Z,75.10
2018-09-11T09:40:30.764Z,74.90
2018-09-11T09:42:58.553Z,75.00
2018-09-11T09:45:26.098Z,74.80
2018-09-11T09:47:53.523Z,73.80
2018-09-11T09:50:20.944Z,74.70
2018-09-11T09:52:48.376Z,74.40
2018-09-11T09:55:15.768Z,74.50
2018-09-11T09:57:43.906Z,74.60
2018-09-11T10:00:11.363Z,74.40
2018-09-11T10:02:38.878Z,74.40
2018-09-11T10:05:06.355Z,74.60
2018-09-11T10:07:33.980Z,73.90
2018-09-11T10:10:01.369Z,73.80
2018-09-11T10:12:29.157Z,73.50
2018-09-11T10:14:56.632Z,72.90
2018-09-11T10:17:24.422Z,73.10
2018-09-11T10:19:52.033Z,73.40
2018-09-11T10:22:19.444Z,73.10
2018-09-11T10:24:47.090Z,72.40
2018-09-11T10:27:14.837Z,71.50
2018-09-11T10:29:42.461Z,71.00
2018-09-11T10:32:09.953Z,71.50
2018-09-11T10:34:37.448Z,71.60
2018-09-11T10:37:04.851Z,71.90
2018-09-11T10:39:32.521Z,71.20
2018-09-11T10:41:59.965Z,71.90
2018-09-11T10:44:27.520Z,71.70
2018-09-11T10:46:55.009Z,72.10
2018-09-11T10:49:22.408Z,70.80
2018-09-11T10:51:49.977Z,70.50
2018-09-11T10:54:17.542Z,70.20
2018-09-11T10:56:45.028Z,71.20
2018-09-11T10:59:12.589Z,70.90
2018-09-11T11:01:40.071Z,70.60
2018-09-11T11:04:07.500Z,70.60
2018-09-11T11:06:35.148Z,70.50
2018-09-11T11:09:02.677Z,70.60
2018-09-11T11:11:30.064Z,70.60
2018-09-11T11:13:58.357Z,71.20
2018-09-11T11:16:25.840Z,70.70
2018-09-11T11:18:53.308Z,71.00
2018-09-11T11:21:20.852Z,71.00
2018-09-11T11:23:48.338Z,70.20
2018-09-11T11:26:15.788Z,71.40
2018-09-11T11:28:43.244Z,71.70
2018-09-11T11:31:10.612Z,71.00
2018-09-11T11:33:38.116Z,70.70
2018-09-11T11:36:05.500Z,70.90
2018-09-11T11:38:34.344Z,70.60
2018-09-11T11:41:01.827Z,70.30
2018-09-11T11:43:29.319Z,69.70
2018-09-11T11:45:56.788Z,70.10
2018-09-11T11:48:24.521Z,70.40
2018-09-11T11:50:51.883Z,69.90
2018-09-11T11:53:19.331Z,70.10
2018-09-11T11:55:46.766Z,70.40
2018-09-11T11:58:14.172Z,71.00
2018-09-11T12:00:41.833Z,69.90
2018-09-11T12:03:09.308Z,70.00
2018-09-11T12:05:36.797Z,69.90
2018-09-11T12:08:04.264Z,68.40
2018-09-11T12:10:31.871Z,68.60
2018-09-11T12:12:59.402Z,69.30
2018-09-11T12:15:26.857Z,69.40
2018-09-11T12:17:54.308Z,69.80
2018-09-11T12:20:21.837Z,70.30
2018-09-11T12:22:49.330Z,70.40
2018-09-11T12:25:16.857Z,70.80
2018-09-11T12:27:44.578Z,70.90
2018-09-11T12:30:12.040Z,70.50
2018-09-11T12:32:39.440Z,70.60
2018-09-11T12:35:07.063Z,70.50
2018-09-11T12:37:34.528Z,70.90
2018-09-11T12:40:02.037Z,70.50
2018-09-11T12:42:29.486Z,70.20
2018-09-11T12:44:56.841Z,69.70
2018-09-11T12:47:24.847Z,69.30
2018-09-11T12:49:52.026Z,69.10
2018-09-11T12:52:19.476Z,70.00
2018-09-11T12:54:46.896Z,69.60
2018-09-11T12:57:14.363Z,69.70
2018-09-11T12:59:41.856Z,70.30
2018-09-11T13:02:09.304Z,70.00
2018-09-11T13:04:36.996Z,70.00
2018-09-11T13:07:05.238Z,70.10
2018-09-11T13:09:32.651Z,69.90
2018-09-11T13:12:00.364Z,69.40
2018-09-11T13:14:28.180Z,70.00
2018-09-11T13:16:55.619Z,70.00
2018-09-11T13:19:23.027Z,69.70
2018-09-11T13:21:50.859Z,70.30
2018-09-11T13:24:18.577Z,70.10
2018-09-11T13:26:45.979Z,70.10
2018-09-11T13:29:13.471Z,70.40
2018-09-11T13:31:41.045Z,69.80
2018-09-11T13:34:08.563Z,70.20
2018-09-11T13:36:36.268Z,69.40
2018-09-11T13:39:04.796Z,70.10
2018-09-11T13:41:32.550Z,70.40
2018-09-11T13:43:59.961Z,70.70
2018-09-11T13:46:27.335Z,70.30
2018-09-11T13:48:54.764Z,70.50
2018-09-11T13:51:22.192Z,70.40
2018-09-11T13:53:49.617Z,70.70
2018-09-11T13:56:17.065Z,70.70
2018-09-11T13:58:44.493Z,70.40
2018-09-11T14:01:12.463Z,70.60
2018-09-11T14:03:40.067Z,70.70
2018-09-11T14:06:07.459Z,71.10
2018-09-11T14:08:34.858Z,71.00
2018-09-11T14:11:02.287Z,71.00
2018-09-11T14:13:29.722Z,71.30
2018-09-11T14:15:57.116Z,71.20
2018-09-11T14:18:24.492Z,70.90
2018-09-11T14:20:52.549Z,71.10
2018-09-11T14:23:19.928Z,71.10
2018-09-11T14:25:47.788Z,71.10
2018-09-11T14:28:15.175Z,71.30
2018-09-11T14:30:42.808Z,71.20
2018-09-11T14:33:10.277Z,70.80
2018-09-11T14:35:38.035Z,71.20
2018-09-11T14:38:05.620Z,70.90
2018-09-11T14:40:33.151Z,71.20
2018-09-11T14:43:00.600Z,71.10
2018-09-11T14:45:28.188Z,70.50
2018-09-11T14:47:55.660Z,70.80
2018-09-11T14:50:23.236Z,71.20
2018-09-11T14:52:50.792Z,71.00
2018-09-11T14:55:18.297Z,70.80
2018-09-11T14:57:45.776Z,71.00
2018-09-11T15:00:13.274Z,71.00
2018-09-11T15:02:40.712Z,71.30
2018-09-11T15:05:08.169Z,71.40
2018-09-11T15:07:35.651Z,71.40
2018-09-11T15:10:03.253Z,71.20
2018-09-11T15:12:30.764Z,71.40
2018-09-11T15:14:58.348Z,71.50
2018-09-11T15:17:25.760Z,71.60
2018-09-11T15:19:53.253Z,71.80
2018-09-11T15:22:20.708Z,71.90
2018-09-11T15:24:48.053Z,71.70
2018-09-11T15:27:15.464Z,71.70
2018-09-11T15:29:42.878Z,71.70
2018-09-11T15:32:10.283Z,72.00
2018-09-11T15:34:37.740Z,72.00
2018-09-11T15:37:05.116Z,72.20
2018-09-11T15:39:32.525Z,72.30
2018-09-11T15:41:59.912Z,72.40
2018-09-11T15:44:28.092Z,72.30
2018-09-11T15:46:55.948Z,72.40
2018-09-11T15:49:23.351Z,73.00
2018-09-11T15:51:50.788Z,72.40
2018-09-11T15:54:18.194Z,72.70
2018-09-11T15:56:45.556Z,72.70
2018-09-11T15:59:12.973Z,72.90
2018-09-11T16:01:40.385Z,72.70
2018-09-11T16:04:07.782Z,72.90
2018-09-11T16:06:35.172Z,73.00
2018-09-11T16:13:57.981Z,73.40
2018-09-11T16:16:25.328Z,73.40
2018-09-11T16:18:52.734Z,73.70
2018-09-11T16:21:20.135Z,73.50
2018-09-11T16:23:47.515Z,73.90
2018-09-11T16:26:15.869Z,73.90
2018-09-11T16:28:43.353Z,74.40
2018-09-11T16:31:10.973Z,74.20
2018-09-11T16:33:38.388Z,74.30
2018-09-11T16:36:05.747Z,74.10
2018-09-11T16:38:33.165Z,74.00
2018-09-11T16:41:00.545Z,74.20
2018-09-11T16:43:27.937Z,74.20
2018-09-11T16:45:55.315Z,74.20
2018-09-11T16:48:22.691Z,74.20
2018-09-11T16:50:50.055Z,74.30
2018-09-11T16:53:17.468Z,74.70
2018-09-11T16:55:44.869Z,74.90
2018-09-11T16:58:12.268Z,74.80
2018-09-11T17:00:39.650Z,75.00
2018-09-11T17:03:06.998Z,74.90
2018-09-11T17:05:34.401Z,74.40
2018-09-11T17:08:01.779Z,74.50
2018-09-11T17:10:29.152Z,74.70
2018-09-11T17:12:56.627Z,75.00
2018-09-11T17:15:24.024Z,75.40
2018-09-11T17:17:51.429Z,75.40
2018-09-11T17:20:18.866Z,75.50
2018-09-11T17:22:46.265Z,75.40
2018-09-11T17:25:13.633Z,74.80
2018-09-11T17:27:41.040Z,76.20
2018-09-11T17:30:08.403Z,76.10
2018-09-11T17:32:35.819Z,75.50
2018-09-11T17:35:03.323Z,75.50
2018-09-11T17:37:30.738Z,76.10
2018-09-11T17:39:58.117Z,76.80
2018-09-11T17:42:25.483Z,76.20
2018-09-11T17:44:52.856Z,76.10
2018-09-11T17:47:20.260Z,76.60
2018-09-11T17:49:47.633Z,75.90
2018-09-11T17:52:15.040Z,75.80
2018-09-11T17:54:42.461Z,75.40
2018-09-11T17:57:09.864Z,75.90
2018-09-11T17:59:37.232Z,75.90
2018-09-11T18:02:04.625Z,75.80
2018-09-11T18:04:31.983Z,76.20
2018-09-11T18:06:59.457Z,76.40
2018-09-11T18:09:26.841Z,76.80
2018-09-11T18:11:54.227Z,76.70
2018-09-11T18:14:22.881Z,76.70
2018-09-11T18:16:50.328Z,77.40
2018-09-11T18:19:17.684Z,77.20
2018-09-11T18:21:45.040Z,76.60
2018-09-11T18:24:12.415Z,78.30
2018-09-11T18:26:39.797Z,77.30
2018-09-11T18:29:07.287Z,77.80
2018-09-11T18:31:34.671Z,78.20
2018-09-11T18:34:02.092Z,78.40
2018-09-11T18:36:29.506Z,77.80
2018-09-11T18:38:56.902Z,77.80
2018-09-11T18:41:24.313Z,78.70
2018-09-11T18:43:51.736Z,78.60
2018-09-11T18:46:19.125Z,78.10
2018-09-11T18:48:46.501Z,78.20
2018-09-11T18:51:13.975Z,78.90
2018-09-11T18:53:41.976Z,78.70
2018-09-11T18:56:09.368Z,78.10
2018-09-11T18:58:36.767Z,78.00
2018-09-11T19:01:04.141Z,78.30
2018-09-11T19:03:32.708Z,78.20
2018-09-11T19:06:00.058Z,78.70
2018-09-11T19:08:27.473Z,78.80
2018-09-11T19:10:54.870Z,78.40
2018-09-11T19:13:22.210Z,79.10
2018-09-11T19:15:49.598Z,78.80
2018-09-11T19:18:16.983Z,78.90
2018-09-11T19:20:44.384Z,77.90
2018-09-11T19:23:11.848Z,78.80
2018-09-11T19:25:39.283Z,78.20
2018-09-11T19:28:06.674Z,79.20
2018-09-11T19:30:34.062Z,78.70
2018-09-11T19:33:01.564Z,79.10
2018-09-11T19:35:28.970Z,79.30
2018-09-11T19:37:56.558Z,78.90
2018-09-11T19:40:24.038Z,78.20
2018-09-11T19:42:51.472Z,78.90
2018-09-11T19:45:18.952Z,78.50
2018-09-11T19:47:46.377Z,79.70
2018-09-11T19:50:13.822Z,78.60
2018-09-11T19:52:41.196Z,79.20
2018-09-11T19:55:08.584Z,79.50
2018-09-11T19:57:36.038Z,79.60
2018-09-11T20:00:03.476Z,79.00
2018-09-11T20:02:31.344Z,78.90
2018-09-11T20:04:58.822Z,78.90
2018-09-11T20:07:26.211Z,79.30
2018-09-11T20:09:53.609Z,78.80
2018-09-11T20:12:21.700Z,80.10
2018-09-11T20:14:49.080Z,79.00
2018-09-11T20:17:16.473Z,79.20
2018-09-11T20:19:43.852Z,80.20
2018-09-11T20:22:11.789Z,79.50
2018-09-11T20:24:39.240Z,79.50
2018-09-11T20:27:07.026Z,79.80
2018-09-11T20:29:34.467Z,80.80
2018-09-11T20:32:01.990Z,79.60
2018-09-11T20:34:29.297Z,79.70
2018-09-11T20:36:56.691Z,80.70
2018-09-11T20:39:24.080Z,80.40
2018-09-11T20:41:51.840Z,80.20
2018-09-11T20:44:19.263Z,80.50
2018-09-11T20:46:46.620Z,79.70
2018-09-11T20:49:13.980Z,79.90
2018-09-11T20:51:41.335Z,80.30
2018-09-11T20:54:08.701Z,80.40
2018-09-11T20:56:36.073Z,80.90
2018-09-11T20:59:03.447Z,80.50
2018-09-11T21:01:30.872Z,79.90
2018-09-11T21:03:58.262Z,80.10
2018-09-11T21:06:25.650Z,80.90
2018-09-11T21:08:53.024Z,79.60
2018-09-11T21:11:20.417Z,80.10
2018-09-11T21:13:47.805Z,79.50
2018-09-11T21:16:15.194Z,80.00
2018-09-11T21:18:42.562Z,80.70
2018-09-11T21:21:09.948Z,80.90
2018-09-11T21:23:37.416Z,80.30
2018-09-11T21:26:04.808Z,80.80
2018-09-11T21:28:32.924Z,80.40
2018-09-11T21:31:00.825Z,80.30
2018-09-11T21:33:28.220Z,79.90
2018-09-11T21:35:55.591Z,80.30
2018-09-11T21:38:26.470Z,80.90
2018-09-11T21:40:54.119Z,81.50
2018-09-11T21:43:21.577Z,80.80
2018-09-11T21:45:49.676Z,80.80
2018-09-11T21:48:17.036Z,81.20
2018-09-11T21:50:44.424Z,80.60
2018-09-11T21:53:11.798Z,80.90
2018-09-11T21:55:39.157Z,80.90
2018-09-11T21:58:06.508Z,80.20
2018-09-11T22:00:34.020Z,80.00
2018-09-11T22:03:04.727Z,80.30
2018-09-11T22:05:32.307Z,81.40
2018-09-11T22:07:59.668Z,81.20
2018-09-11T22:10:27.031Z,80.80
2018-09-11T22:12:54.427Z,81.30
2018-09-11T22:15:21.864Z,81.10
2018-09-11T22:17:49.242Z,80.50
2018-09-11T22:20:16.604Z,80.40
2018-09-11T22:22:44.046Z,81.60
2018-09-11T22:25:11.408Z,82.80
2018-09-11T22:27:38.761Z,81.40
2018-09-11T22:30:06.185Z,80.70
2018-09-11T22:32:34.500Z,80.80
2018-09-11T22:35:01.860Z,80.90
2018-09-11T22:37:30.600Z,81.00
2018-09-11T22:39:57.987Z,81.10
2018-09-11T22:42:25.362Z,81.20
2018-09-11T22:44:52.748Z,81.40
2018-09-11T22:47:20.136Z,81.60
2018-09-11T22:49:47.521Z,81.90
2018-09-11T22:52:14.899Z,81.00
2018-09-11T22:54:42.306Z,81.20
2018-09-11T22:57:09.736Z,81.80
2018-09-11T22:59:37.137Z,81.40
2018-09-11T23:02:04.544Z,80.90
2018-09-11T23:04:31.905Z,81.20
2018-09-11T23:06:59.292Z,81.90
2018-09-11T23:09:26.672Z,81.40
2018-09-11T23:11:54.032Z,81.80
2018-09-11T23:14:21.375Z,81.40
2018-09-11T23:16:48.743Z,81.20
2018-09-11T23:19:16.095Z,81.00
2018-09-11T23:21:43.472Z,81.00
2018-09-11T23:24:10.840Z,80.90
2018-09-11T23:26:38.253Z,80.70
2018-09-11T23:29:05.664Z,80.90
2018-09-11T23:31:33.364Z,81.80
2018-09-11T23:34:00.746Z,81.50
2018-09-11T23:36:28.101Z,81.20
2018-09-11T23:38:55.431Z,81.30
2018-09-11T23:41:22.864Z,82.00
2018-09-11T23:43:50.529Z,81.50
2018-09-11T23:46:19.113Z,81.40
2018-09-11T23:48:46.697Z,82.00
2018-09-11T23:51:14.101Z,82.30
2018-09-11T23:53:42.356Z,81.60
2018-09-11T23:56:09.765Z,81.30
2018-09-11T23:58:37.135Z,81.20
